Terminal Aerodrome Forecast
Issued by NWS Shreveport, LA

Home | Current Version | Previous Version | Text Only | Print | Product List | Glossary On
Versions: 1 2 3 4 5 6 7 8 9 10 11 12 13 14 15
000
FTUS44 KSHV 182300
TAFTXK
TAF
KTXK 182326Z 1900/1924 VRB03KT P6SM FEW060
     FM190200 VRB03KT P6SM SKC
      TEMPO 1910/1913 5SM BR
     FM191300 VRB03KT P6SM SCT250
     FM191600 11004KT P6SM SCT035 SCT250
     FM192100 14005KT P6SM SCT045 SCT250=

USA.gov is the U.S. government's official web portal to all federal, state and local government web resources and services.